Terminal Aerodrome Forecast
Issued by NWS Tulsa, OK

Home | Current Version | Previous Version | Text Only | Print | Product List | Glossary On
Versions: 1 2 3 4 5 6 7 8 9 10 11 12 13 14 15 16 17
000
FTUS44 KTSA 231700
TAFFSM
TAF
KFSM 231725Z 2318/2418 09010KT P6SM VCSH OVC040
      TEMPO 2320/2324 6SM -TSRA BKN025CB
     FM240900 12010KT 6SM -SHRA OVC025
      TEMPO 2409/2413 3SM -TSRA BKN012CB
     FM241300 11010KT 3SM -TSRA OVC012CB
      TEMPO 2413/2417 1SM TSRA BKN012CB=

USA.gov is the U.S. government's official web portal to all federal, state and local government web resources and services.